createdAt,value
2023-04-25T00:00:34.660Z,5.68
2023-04-25T00:02:38.141Z,5.75
2023-04-25T00:04:42.318Z,5.85
2023-04-25T00:06:46.017Z,5.65
2023-04-25T00:08:50.408Z,5.35
2023-04-25T00:10:53.814Z,5.38
2023-04-25T00:12:58.651Z,4.87
2023-04-25T00:15:02.008Z,5.07
2023-04-25T00:17:05.478Z,4.82
2023-04-25T00:19:09.091Z,5.05
2023-04-25T00:21:12.651Z,4.75
2023-04-25T00:23:19.175Z,5.28
2023-04-25T00:25:22.803Z,4.47
2023-04-25T00:27:26.190Z,4.82
2023-04-25T00:29:31.230Z,4.28
2023-04-25T00:31:34.667Z,4.75
2023-04-25T00:33:38.054Z,4.55
2023-04-25T00:35:41.885Z,4.68
2023-04-25T00:37:45.986Z,3.90
2023-04-25T00:39:49.342Z,4.68
2023-04-25T00:41:54.348Z,4.85
2023-04-25T00:43:58.950Z,5.00
2023-04-25T00:46:03.953Z,4.63
2023-04-25T00:48:07.823Z,4.95
2023-04-25T00:50:12.672Z,4.50
2023-04-25T00:52:16.065Z,5.18
2023-04-25T00:54:19.774Z,4.70
2023-04-25T00:56:23.540Z,4.90
2023-04-25T00:58:28.463Z,4.55
2023-04-25T01:00:31.885Z,4.22
2023-04-25T01:02:37.851Z,5.30
2023-04-25T01:04:41.652Z,5.30
2023-04-25T01:06:45.143Z,4.38
2023-04-25T01:08:48.557Z,4.95
2023-04-25T01:10:52.022Z,4.63
2023-04-25T01:12:55.841Z,4.63
2023-04-25T01:14:59.784Z,5.10
2023-04-25T01:17:03.945Z,4.10
2023-04-25T01:19:13.229Z,5.57
2023-04-25T01:21:18.161Z,5.30
2023-04-25T01:23:22.678Z,4.95
2023-04-25T01:25:26.930Z,4.78
2023-04-25T01:27:31.265Z,4.97
2023-04-25T01:29:35.127Z,5.20
2023-04-25T01:31:39.128Z,4.60
2023-04-25T01:33:43.030Z,5.63
2023-04-25T01:35:46.579Z,4.57
2023-04-25T01:37:51.707Z,5.47
2023-04-25T01:39:55.152Z,4.75
2023-04-25T01:42:01.409Z,4.53
2023-04-25T01:44:05.206Z,4.85
2023-04-25T01:46:08.916Z,5.15
2023-04-25T01:48:13.496Z,5.07
2023-04-25T01:50:18.317Z,5.22
2023-04-25T01:52:22.207Z,5.00
2023-04-25T01:54:27.306Z,5.45
2023-04-25T01:56:32.804Z,5.32
2023-04-25T01:58:36.882Z,5.15
2023-04-25T02:00:52.643Z,4.53
2023-04-25T02:02:56.093Z,5.70
2023-04-25T02:05:09.866Z,4.32
2023-04-25T02:07:16.886Z,5.13
2023-04-25T02:09:28.705Z,4.65
2023-04-25T02:11:33.532Z,5.95
2023-04-25T02:14:06.226Z,4.60
2023-04-25T02:16:16.028Z,4.78
2023-04-25T02:18:19.602Z,4.80
2023-04-25T02:20:24.039Z,5.47
2023-04-25T02:22:27.948Z,4.95
2023-04-25T02:24:35.844Z,4.80
2023-04-25T02:26:39.358Z,4.70
2023-04-25T02:28:45.729Z,5.20
2023-04-25T02:30:49.184Z,5.10
2023-04-25T02:32:52.672Z,4.47
2023-04-25T02:34:56.038Z,5.53
2023-04-25T02:36:59.396Z,4.95
2023-04-25T02:39:03.982Z,5.28
2023-04-25T02:41:08.830Z,4.57
2023-04-25T02:43:12.239Z,4.72
2023-04-25T02:45:15.642Z,5.47
2023-04-25T02:47:19.046Z,5.07
2023-04-25T02:49:22.579Z,5.20
2023-04-25T02:51:25.997Z,3.50
2023-04-25T02:53:29.525Z,4.45
2023-04-25T02:55:32.932Z,4.25
2023-04-25T02:57:40.142Z,5.07
2023-04-25T02:59:44.626Z,3.95
2023-04-25T03:01:48.126Z,4.10
2023-04-25T03:03:51.678Z,4.53
2023-04-25T03:05:55.362Z,4.80
2023-04-25T03:08:03.978Z,4.20
2023-04-25T03:10:10.206Z,4.40
2023-04-25T03:12:13.894Z,4.25
2023-04-25T03:14:18.791Z,4.70
2023-04-25T03:16:22.260Z,4.22
2023-04-25T03:18:26.911Z,4.50
2023-04-25T03:20:32.053Z,3.92
2023-04-25T03:22:35.519Z,3.67
2023-04-25T03:24:39.208Z,4.05
2023-04-25T03:26:42.650Z,3.58
2023-04-25T03:28:46.101Z,3.90
2023-04-25T03:30:51.273Z,3.90
2023-04-25T03:32:54.835Z,3.97
2023-04-25T03:34:58.479Z,4.68
2023-04-25T03:37:03.926Z,4.07
2023-04-25T03:39:11.969Z,3.63
2023-04-25T03:41:17.302Z,3.88
2023-04-25T03:43:31.338Z,4.05
2023-04-25T03:45:40.317Z,3.70
2023-04-25T03:47:45.345Z,4.50
2023-04-25T03:49:50.529Z,3.85
2023-04-25T03:51:56.369Z,4.13
2023-04-25T03:53:59.906Z,4.28
2023-04-25T03:56:22.346Z,4.22
2023-04-25T03:58:33.474Z,4.07
2023-04-25T04:00:37.172Z,3.65
2023-04-25T04:02:41.872Z,4.03
2023-04-25T04:04:49.495Z,3.80
2023-04-25T04:06:53.528Z,3.92
2023-04-25T04:09:01.903Z,4.25
2023-04-25T04:11:08.486Z,4.13
2023-04-25T04:13:11.998Z,3.35
2023-04-25T04:15:15.425Z,3.78
2023-04-25T04:17:20.927Z,3.10
2023-04-25T04:19:24.366Z,3.63
2023-04-25T04:21:37.838Z,4.10
2023-04-25T04:23:41.895Z,3.95
2023-04-25T04:25:46.823Z,4.00
2023-04-25T04:28:12.182Z,3.30
2023-04-25T04:30:30.513Z,3.80
2023-04-25T04:32:38.693Z,4.38
2023-04-25T04:34:43.032Z,3.00
2023-04-25T04:36:50.451Z,3.50
2023-04-25T04:38:55.076Z,3.55
2023-04-25T04:41:10.152Z,3.67
2023-04-25T04:43:25.247Z,3.08
2023-04-25T04:45:47.161Z,3.67
2023-04-25T04:48:16.942Z,3.10
2023-04-25T04:50:34.234Z,3.28
2023-04-25T04:52:46.995Z,4.07
2023-04-25T04:55:16.881Z,3.72
2023-04-25T04:57:39.685Z,3.90
2023-04-25T05:00:01.090Z,3.63
2023-04-25T05:02:24.870Z,3.20
2023-04-25T05:04:47.910Z,3.35
2023-04-25T05:07:13.249Z,3.42
2023-04-25T05:09:29.350Z,3.60
2023-04-25T05:11:41.499Z,2.78
2023-04-25T05:14:02.202Z,3.25
2023-04-25T05:16:35.263Z,2.88
2023-04-25T05:19:07.880Z,3.13
2023-04-25T05:23:53.378Z,3.33
2023-04-25T05:26:25.101Z,2.85
2023-04-25T05:28:52.117Z,3.35
2023-04-25T05:31:01.184Z,2.58
2023-04-25T05:33:08.173Z,3.20
2023-04-25T05:35:11.662Z,3.70
2023-04-25T05:37:20.575Z,3.72
2023-04-25T05:39:33.225Z,3.40
2023-04-25T05:42:10.234Z,3.70
2023-04-25T05:44:45.896Z,3.70
2023-04-25T05:47:08.984Z,3.78
2023-04-25T05:49:51.248Z,3.55
2023-04-25T05:52:10.032Z,3.67
2023-04-25T05:54:26.705Z,3.00
2023-04-25T05:56:32.377Z,3.65
2023-04-25T05:58:37.718Z,2.85
2023-04-25T06:00:42.564Z,3.95
2023-04-25T06:02:47.384Z,3.35
2023-04-25T06:04:52.782Z,4.05
2023-04-25T06:06:56.634Z,3.80
2023-04-25T06:09:00.737Z,3.70
2023-04-25T06:11:04.497Z,3.38
2023-04-25T06:13:08.297Z,3.95
2023-04-25T06:15:27.183Z,2.95
2023-04-25T06:17:36.153Z,3.45
2023-04-25T06:19:40.319Z,3.65
2023-04-25T06:21:45.503Z,3.13
2023-04-25T06:23:49.498Z,3.58
2023-04-25T06:25:57.845Z,3.13
2023-04-25T06:28:03.151Z,3.03
2023-04-25T06:30:08.242Z,4.22
2023-04-25T06:32:13.823Z,3.22
2023-04-25T06:34:18.398Z,3.28
2023-04-25T06:36:26.033Z,3.42
2023-04-25T06:38:32.547Z,3.85
2023-04-25T06:40:35.894Z,3.83
2023-04-25T06:42:39.646Z,3.42
2023-04-25T06:45:02.092Z,3.33
2023-04-25T06:47:07.972Z,3.08
2023-04-25T06:49:13.080Z,2.63
2023-04-25T06:51:17.370Z,3.08
2023-04-25T06:53:22.184Z,2.70
2023-04-25T06:55:31.801Z,2.97
2023-04-25T06:57:50.307Z,2.72
2023-04-25T07:00:14.081Z,2.47
2023-04-25T07:02:17.816Z,2.55
2023-04-25T07:04:23.341Z,2.60
2023-04-25T07:06:30.858Z,3.08
2023-04-25T07:08:34.232Z,3.28
2023-04-25T07:10:37.918Z,2.90
2023-04-25T07:12:41.375Z,2.78
2023-04-25T07:14:44.950Z,3.22
2023-04-25T07:16:48.529Z,2.90
2023-04-25T07:18:52.223Z,2.35
2023-04-25T07:20:57.821Z,2.60
2023-04-25T07:23:01.360Z,2.30
2023-04-25T07:25:05.346Z,2.53
2023-04-25T07:27:08.958Z,3.05
2023-04-25T07:29:38.101Z,2.42
2023-04-25T07:31:41.780Z,2.53
2023-04-25T07:33:45.146Z,3.58
2023-04-25T07:35:48.501Z,2.60
2023-04-25T07:37:53.519Z,2.50
2023-04-25T07:39:57.063Z,2.25
2023-04-25T07:42:01.489Z,2.50
2023-04-25T07:44:06.583Z,2.50
2023-04-25T07:46:11.941Z,2.75
2023-04-25T07:48:19.773Z,2.10
2023-04-25T07:50:24.346Z,2.80
2023-04-25T07:52:27.713Z,2.75
2023-04-25T07:54:39.963Z,2.42
2023-04-25T07:56:53.671Z,2.47
2023-04-25T07:59:03.207Z,2.22
2023-04-25T08:01:07.285Z,2.42
2023-04-25T08:03:28.138Z,2.23
2023-04-25T08:05:32.757Z,2.70
2023-04-25T08:07:41.382Z,2.05
2023-04-25T08:09:46.138Z,2.53
2023-04-25T08:11:58.585Z,2.10
2023-04-25T08:14:06.293Z,2.80
2023-04-25T08:16:10.696Z,2.20
2023-04-25T08:18:15.070Z,2.60
2023-04-25T08:20:20.911Z,2.35
2023-04-25T08:22:26.280Z,2.60
2023-04-25T08:24:50.185Z,2.47
2023-04-25T08:26:56.726Z,2.20
2023-04-25T08:29:02.311Z,2.40
2023-04-25T08:31:06.027Z,2.60
2023-04-25T08:33:17.744Z,2.42
2023-04-25T08:35:36.670Z,2.88
2023-04-25T08:37:40.145Z,2.70
2023-04-25T08:39:53.340Z,2.03
2023-04-25T08:41:57.180Z,2.40
2023-04-25T08:44:02.200Z,1.92
2023-04-25T08:46:07.298Z,2.30
2023-04-25T08:48:28.952Z,2.40
2023-04-25T08:50:32.945Z,2.25
2023-04-25T08:52:40.214Z,3.00
2023-04-25T08:54:47.634Z,2.33
2023-04-25T08:56:52.742Z,2.65
2023-04-25T08:58:57.686Z,2.25
2023-04-25T09:01:01.305Z,1.95
2023-04-25T09:03:08.694Z,1.83
2023-04-25T09:05:15.755Z,1.85
2023-04-25T09:07:22.414Z,1.60
2023-04-25T09:09:27.040Z,1.70
2023-04-25T09:11:30.830Z,1.98
2023-04-25T09:13:36.733Z,2.03
2023-04-25T09:16:06.336Z,1.90
2023-04-25T09:18:31.166Z,2.15
2023-04-25T09:20:59.628Z,1.75
2023-04-25T09:23:04.803Z,1.70
2023-04-25T09:25:15.067Z,2.20
2023-04-25T09:27:24.000Z,2.35
2023-04-25T09:29:35.238Z,2.65
2023-04-25T09:31:39.113Z,2.47
2023-04-25T09:33:44.764Z,2.30
2023-04-25T09:35:53.970Z,2.20
2023-04-25T09:38:13.341Z,2.40
2023-04-25T09:40:47.248Z,2.42
2023-04-25T09:43:00.242Z,2.40
2023-04-25T09:45:06.174Z,2.55
2023-04-25T09:47:16.520Z,2.57
2023-04-25T09:49:22.823Z,2.63
2023-04-25T09:51:56.834Z,2.65
2023-04-25T09:54:01.636Z,2.25
2023-04-25T09:56:12.987Z,2.30
2023-04-25T09:58:17.415Z,2.00
2023-04-25T10:00:23.840Z,2.20
2023-04-25T10:02:28.434Z,1.88
2023-04-25T10:04:38.202Z,2.33
2023-04-25T10:06:48.303Z,1.70
2023-04-25T10:08:56.881Z,1.67
2023-04-25T10:11:02.497Z,1.65
2023-04-25T10:13:09.265Z,1.90
2023-04-25T10:15:14.490Z,1.67
2023-04-25T10:17:20.815Z,2.00
2023-04-25T10:19:24.510Z,2.58
2023-04-25T10:21:30.237Z,2.25
2023-04-25T10:23:35.526Z,2.00
2023-04-25T10:25:39.590Z,2.38
2023-04-25T10:27:43.426Z,1.75
2023-04-25T10:29:46.816Z,1.70
2023-04-25T10:31:50.360Z,2.40
2023-04-25T10:33:55.744Z,1.95
2023-04-25T10:36:00.586Z,1.80
2023-04-25T10:38:07.074Z,2.22
2023-04-25T10:40:11.990Z,2.00
2023-04-25T10:42:15.444Z,1.75
2023-04-25T10:44:18.903Z,1.95
2023-04-25T10:46:25.857Z,2.13
2023-04-25T10:48:30.181Z,1.85
2023-04-25T10:50:41.522Z,1.60
2023-04-25T10:52:45.270Z,2.13
2023-04-25T10:54:53.853Z,2.08
2023-04-25T10:57:01.288Z,2.53
2023-04-25T10:59:07.293Z,2.03
2023-04-25T11:01:10.922Z,2.05
2023-04-25T11:03:19.036Z,1.88
2023-04-25T11:05:25.943Z,2.28
2023-04-25T11:07:39.641Z,2.30
2023-04-25T11:09:43.376Z,1.92
2023-04-25T11:11:56.154Z,1.80
2023-04-25T11:13:59.793Z,1.73
2023-04-25T11:16:12.317Z,1.60
2023-04-25T11:18:19.441Z,2.13
2023-04-25T11:20:23.193Z,1.73
2023-04-25T11:22:26.882Z,1.83
2023-04-25T11:24:32.804Z,1.70
2023-04-25T11:26:38.641Z,1.50
2023-04-25T11:28:42.102Z,2.00
2023-04-25T11:30:51.220Z,1.80
2023-04-25T11:32:55.933Z,1.83
2023-04-25T11:35:00.160Z,1.90
2023-04-25T11:37:04.456Z,1.55
2023-04-25T11:39:08.058Z,1.50
2023-04-25T11:41:13.608Z,1.60
2023-04-25T11:43:18.761Z,1.60
2023-04-25T11:45:26.019Z,1.50
2023-04-25T11:47:33.333Z,1.40
2023-04-25T11:49:40.162Z,1.60
2023-04-25T11:51:46.644Z,1.88
2023-04-25T11:53:50.063Z,1.60
2023-04-25T11:55:53.639Z,1.80
2023-04-25T11:58:02.459Z,1.75
2023-04-25T12:00:16.552Z,1.38
2023-04-25T12:02:28.120Z,1.33
2023-04-25T12:04:33.143Z,1.90
2023-04-25T12:06:41.617Z,1.25
2023-04-25T12:09:02.065Z,1.70
2023-04-25T12:11:06.091Z,1.30
2023-04-25T12:13:27.807Z,1.25
2023-04-25T12:17:36.103Z,1.42
2023-04-25T12:19:41.726Z,1.42
2023-04-25T12:21:57.312Z,1.52
2023-04-25T12:24:12.894Z,1.70
2023-04-25T12:26:17.926Z,1.58
2023-04-25T12:28:24.656Z,1.60
2023-04-25T12:30:29.796Z,1.40
2023-04-25T12:32:33.332Z,1.33
2023-04-25T12:34:37.163Z,1.52
2023-04-25T12:36:41.098Z,1.63
2023-04-25T12:38:45.203Z,1.70
2023-04-25T12:40:48.776Z,2.13
2023-04-25T12:42:52.544Z,1.52
2023-04-25T12:44:56.005Z,1.90
2023-04-25T12:47:01.355Z,1.50
2023-04-25T12:49:17.568Z,1.20
2023-04-25T12:51:25.995Z,1.15
2023-04-25T12:53:29.576Z,1.35
2023-04-25T12:55:33.140Z,2.05
2023-04-25T12:57:36.629Z,1.77
2023-04-25T12:59:40.120Z,2.00
2023-04-25T13:01:44.564Z,1.60
2023-04-25T13:03:50.816Z,1.63
2023-04-25T13:05:55.353Z,1.77
2023-04-25T13:07:59.002Z,1.42
2023-04-25T13:10:04.088Z,1.25
2023-04-25T13:12:08.598Z,1.30
2023-04-25T13:14:12.354Z,1.58
2023-04-25T13:16:16.269Z,2.13
2023-04-25T13:18:20.055Z,1.70
2023-04-25T13:20:25.878Z,1.70
2023-04-25T13:22:29.753Z,4.97
2023-04-25T13:24:33.293Z,1.88
2023-04-25T13:26:36.935Z,1.67
2023-04-25T13:28:42.923Z,1.50
2023-04-25T13:30:50.093Z,1.90
2023-04-25T13:32:53.871Z,2.42
2023-04-25T13:34:57.495Z,1.75
2023-04-25T13:37:02.913Z,2.08
2023-04-25T13:39:06.820Z,2.30
2023-04-25T13:41:12.280Z,1.67
2023-04-25T13:43:16.200Z,2.25
2023-04-25T13:45:19.881Z,1.63
2023-04-25T13:47:24.270Z,2.00
2023-04-25T13:49:27.926Z,1.40
2023-04-25T13:51:32.667Z,1.63
2023-04-25T13:53:37.781Z,1.70
2023-04-25T13:55:41.378Z,1.92
2023-04-25T13:57:44.933Z,1.55
2023-04-25T13:59:48.601Z,2.10
2023-04-25T14:01:52.272Z,2.00
2023-04-25T14:03:56.214Z,1.60
2023-04-25T14:06:00.278Z,2.13
2023-04-25T14:08:04.271Z,1.77
2023-04-25T14:10:10.622Z,1.80
2023-04-25T14:12:19.214Z,1.80
2023-04-25T14:14:24.859Z,1.63
2023-04-25T14:16:28.833Z,2.13
2023-04-25T14:18:32.420Z,2.22
2023-04-25T14:20:36.816Z,1.80
2023-04-25T14:22:44.011Z,2.70
2023-04-25T14:24:47.712Z,1.60
2023-04-25T14:26:52.697Z,1.55
2023-04-25T14:28:56.315Z,1.50
2023-04-25T14:30:59.925Z,1.70
2023-04-25T14:33:03.921Z,1.60
2023-04-25T14:35:08.319Z,1.50
2023-04-25T14:37:11.864Z,1.23
2023-04-25T14:39:15.817Z,1.55
2023-04-25T14:41:21.364Z,1.55
2023-04-25T14:43:26.506Z,1.80
2023-04-25T14:45:30.590Z,1.48
2023-04-25T14:47:37.188Z,1.80
2023-04-25T14:49:40.778Z,1.95
2023-04-25T14:51:44.890Z,1.65
2023-04-25T14:53:48.369Z,1.80
2023-04-25T14:55:51.949Z,1.50
2023-04-25T14:57:57.567Z,1.70
2023-04-25T15:00:10.191Z,1.92
2023-04-25T15:02:17.143Z,1.80
2023-04-25T15:04:20.934Z,2.00
2023-04-25T15:06:27.533Z,1.98
2023-04-25T15:08:31.119Z,1.60
2023-04-25T15:10:34.960Z,1.90
2023-04-25T15:12:39.858Z,1.70
2023-04-25T15:14:45.838Z,1.77
2023-04-25T15:16:51.278Z,2.10
2023-04-25T15:18:55.222Z,1.73
2023-04-25T15:20:58.770Z,1.92
2023-04-25T15:23:05.922Z,1.90
2023-04-25T15:25:10.334Z,1.85
2023-04-25T15:27:14.782Z,2.03
2023-04-25T15:29:18.820Z,2.15
2023-04-25T15:31:22.945Z,1.50
2023-04-25T15:33:28.357Z,1.70
2023-04-25T15:35:33.353Z,1.83
2023-04-25T15:37:37.862Z,1.42
2023-04-25T15:39:41.375Z,1.88
2023-04-25T15:41:45.126Z,1.70
2023-04-25T15:43:50.444Z,1.63
2023-04-25T15:45:55.338Z,1.65
2023-04-25T15:47:59.050Z,1.70
2023-04-25T15:50:05.296Z,1.70
2023-04-25T15:52:11.703Z,1.60
2023-04-25T15:54:16.126Z,1.45
2023-04-25T15:56:19.642Z,1.52
2023-04-25T15:58:23.351Z,1.50
2023-04-25T16:00:26.944Z,1.58
2023-04-25T16:02:31.131Z,1.88
2023-04-25T16:04:37.283Z,2.20
2023-04-25T16:06:42.596Z,1.85
2023-04-25T16:08:49.260Z,1.70
2023-04-25T16:10:53.165Z,1.92
2023-04-25T16:12:59.388Z,1.60
2023-04-25T16:15:03.253Z,1.95
2023-04-25T16:17:08.369Z,2.00
2023-04-25T16:19:14.824Z,1.70
2023-04-25T16:21:19.126Z,2.05
2023-04-25T16:23:24.535Z,1.70
2023-04-25T16:25:31.751Z,1.92
2023-04-25T16:27:38.719Z,1.52
2023-04-25T16:29:43.027Z,1.42
2023-04-25T16:31:49.439Z,1.98
2023-04-25T16:33:54.129Z,1.55
2023-04-25T16:35:58.204Z,1.77
2023-04-25T16:38:02.300Z,1.85
2023-04-25T16:40:10.780Z,1.80
2023-04-25T16:42:15.666Z,1.55
2023-04-25T16:44:19.894Z,1.58
2023-04-25T16:46:25.025Z,1.80
2023-04-25T16:48:31.756Z,1.75
2023-04-25T16:50:37.052Z,1.55
2023-04-25T16:52:43.751Z,1.30
2023-04-25T16:54:48.723Z,1.80
2023-04-25T16:56:53.843Z,1.70
2023-04-25T16:58:57.481Z,2.28
2023-04-25T17:01:01.592Z,1.60
2023-04-25T17:03:05.505Z,1.50
2023-04-25T17:05:13.674Z,1.65
2023-04-25T17:07:18.276Z,1.48
2023-04-25T17:09:21.932Z,1.65
2023-04-25T17:11:28.404Z,1.80
2023-04-25T17:13:34.325Z,1.38
2023-04-25T17:15:38.075Z,1.23
2023-04-25T17:17:44.580Z,1.60
2023-04-25T17:19:49.076Z,1.27
2023-04-25T17:21:53.024Z,1.25
2023-04-25T17:23:58.855Z,1.20
2023-04-25T17:26:02.626Z,1.30
2023-04-25T17:28:07.525Z,1.20
2023-04-25T17:30:16.618Z,1.50
2023-04-25T17:32:23.313Z,1.38
2023-04-25T17:34:28.256Z,1.10
2023-04-25T17:36:32.043Z,1.60
2023-04-25T17:38:35.856Z,1.67
2023-04-25T17:40:40.249Z,1.67
2023-04-25T17:42:43.897Z,1.80
2023-04-25T17:44:47.504Z,1.83
2023-04-25T17:46:52.792Z,1.80
2023-04-25T17:48:57.757Z,1.83
2023-04-25T17:51:01.788Z,2.05
2023-04-25T17:53:06.250Z,2.78
2023-04-25T17:55:10.527Z,1.63
2023-04-25T17:57:14.119Z,1.80
2023-04-25T17:59:17.968Z,1.88
2023-04-25T18:01:21.627Z,1.52
2023-04-25T18:03:27.838Z,1.90
2023-04-25T18:05:32.898Z,1.95
2023-04-25T18:07:36.927Z,1.85
2023-04-25T18:09:40.447Z,1.73
2023-04-25T18:11:44.227Z,2.22
2023-04-25T18:13:48.419Z,1.70
2023-04-25T18:15:52.691Z,1.83
2023-04-25T18:17:58.201Z,2.10
2023-04-25T18:20:05.720Z,2.03
2023-04-25T18:22:09.579Z,1.70
2023-04-25T18:24:13.995Z,1.83
2023-04-25T18:26:18.873Z,2.00
2023-04-25T18:28:23.070Z,1.55
2023-04-25T18:30:29.050Z,1.73
2023-04-25T18:32:32.811Z,1.80
2023-04-25T18:34:36.308Z,1.55
2023-04-25T18:36:42.118Z,1.85
2023-04-25T18:38:50.585Z,2.45
2023-04-25T18:41:01.330Z,2.65
2023-04-25T18:43:09.966Z,2.20
2023-04-25T18:45:13.903Z,2.42
2023-04-25T18:47:18.247Z,2.67
2023-04-25T18:49:22.208Z,2.45
2023-04-25T18:51:29.362Z,2.63
2023-04-25T18:53:34.494Z,2.00
2023-04-25T18:55:38.328Z,2.42
2023-04-25T18:57:42.475Z,3.33
2023-04-25T18:59:48.080Z,2.53
2023-04-25T19:01:53.860Z,2.45
2023-04-25T19:03:58.311Z,2.70
2023-04-25T19:06:03.368Z,2.17
2023-04-25T19:08:07.305Z,2.38
2023-04-25T19:10:13.340Z,2.42
2023-04-25T19:12:16.971Z,2.60
2023-04-25T19:14:21.488Z,3.17
2023-04-25T19:16:26.641Z,2.22
2023-04-25T19:18:30.738Z,2.20
2023-04-25T19:20:34.933Z,2.75
2023-04-25T19:22:41.552Z,3.00
2023-04-25T19:24:48.761Z,2.40
2023-04-25T19:27:03.253Z,2.35
2023-04-25T19:29:10.252Z,2.20
2023-04-25T19:31:13.832Z,2.33
2023-04-25T19:33:17.886Z,2.25
2023-04-25T19:35:21.957Z,2.60
2023-04-25T19:37:25.538Z,2.33
2023-04-25T19:39:30.425Z,1.92
2023-04-25T19:41:38.730Z,2.58
2023-04-25T19:43:43.918Z,2.13
2023-04-25T19:45:47.687Z,2.22
2023-04-25T19:47:51.362Z,2.08
2023-04-25T19:49:55.472Z,2.22
2023-04-25T19:52:02.897Z,1.85
2023-04-25T19:54:06.906Z,2.15
2023-04-25T19:56:15.261Z,2.30
2023-04-25T19:58:19.545Z,2.58
2023-04-25T20:00:24.654Z,1.92
2023-04-25T20:02:33.183Z,1.85
2023-04-25T20:04:44.960Z,2.28
2023-04-25T20:06:52.658Z,12.05
2023-04-25T20:08:59.749Z,2.28
2023-04-25T20:11:03.823Z,2.53
2023-04-25T20:13:12.006Z,2.17
2023-04-25T20:15:15.686Z,2.25
2023-04-25T20:17:30.498Z,2.15
2023-04-25T20:19:34.295Z,2.53
2023-04-25T20:21:37.841Z,2.55
2023-04-25T20:23:42.641Z,2.13
2023-04-25T20:25:46.486Z,1.90
2023-04-25T20:27:50.458Z,2.22
2023-04-25T20:29:54.949Z,3.03
2023-04-25T20:31:58.617Z,2.60
2023-04-25T20:34:04.444Z,2.58
2023-04-25T20:36:08.408Z,2.10
2023-04-25T20:38:13.486Z,2.30
2023-04-25T20:40:17.236Z,2.28
2023-04-25T20:42:22.210Z,2.65
2023-04-25T20:44:26.138Z,2.35
2023-04-25T20:46:30.549Z,2.20
2023-04-25T20:48:35.698Z,3.90
2023-04-25T20:50:41.215Z,2.47
2023-04-25T20:52:44.822Z,2.30
2023-04-25T20:54:50.581Z,2.67
2023-04-25T20:56:55.972Z,2.45
2023-04-25T20:58:59.599Z,2.05
2023-04-25T21:01:04.495Z,2.03
2023-04-25T21:03:09.197Z,2.78
2023-04-25T21:05:12.884Z,3.00
2023-04-25T21:07:17.836Z,2.63
2023-04-25T21:09:21.484Z,2.85
2023-04-25T21:11:25.072Z,2.30
2023-04-25T21:13:29.164Z,2.70
2023-04-25T21:15:33.964Z,2.42
2023-04-25T21:17:38.042Z,1.70
2023-04-25T21:19:41.732Z,1.83
2023-04-25T21:21:45.338Z,1.75
2023-04-25T21:23:50.204Z,2.55
2023-04-25T21:25:54.371Z,1.73
2023-04-25T21:27:58.232Z,2.20
2023-04-25T21:30:01.771Z,1.60
2023-04-25T21:32:06.350Z,1.67
2023-04-25T21:34:09.850Z,1.55
2023-04-25T21:36:13.524Z,1.98
2023-04-25T21:38:17.389Z,2.20
2023-04-25T21:40:22.578Z,1.90
2023-04-25T21:42:26.268Z,2.00
2023-04-25T21:44:30.488Z,1.80
2023-04-25T21:46:34.194Z,1.88
2023-04-25T21:48:38.126Z,1.88
2023-04-25T21:50:41.690Z,1.58
2023-04-25T21:52:45.267Z,1.48
2023-04-25T21:54:48.814Z,2.05
2023-04-25T21:56:53.756Z,1.45
2023-04-25T21:58:57.380Z,1.10
2023-04-25T22:01:01.079Z,1.52
2023-04-25T22:03:05.113Z,1.45
2023-04-25T22:05:09.106Z,1.13
2023-04-25T22:07:12.608Z,1.42
2023-04-25T22:09:16.477Z,1.30
2023-04-25T22:11:20.042Z,1.33
2023-04-25T22:13:25.991Z,1.55
2023-04-25T22:15:29.797Z,1.63
2023-04-25T22:17:33.581Z,1.45
2023-04-25T22:19:37.231Z,1.60
2023-04-25T22:21:41.068Z,1.33
2023-04-25T22:23:44.682Z,1.60
2023-04-25T22:25:48.196Z,1.73
2023-04-25T22:27:51.684Z,2.08
2023-04-25T22:29:56.750Z,1.42
2023-04-25T22:32:00.273Z,1.50
2023-04-25T22:34:03.934Z,1.52
2023-04-25T22:36:07.862Z,1.42
2023-04-25T22:38:11.546Z,1.65
2023-04-25T22:40:15.669Z,1.90
2023-04-25T22:42:19.461Z,1.70
2023-04-25T22:44:23.349Z,1.33
2023-04-25T22:46:28.907Z,2.00
2023-04-25T22:48:32.398Z,2.30
2023-04-25T22:50:36.971Z,2.78
2023-04-25T22:52:42.534Z,1.60
2023-04-25T22:54:46.546Z,1.80
2023-04-25T22:56:50.431Z,2.05
2023-04-25T22:58:54.286Z,1.63
2023-04-25T23:00:58.139Z,2.00
2023-04-25T23:03:04.534Z,2.08
2023-04-25T23:05:08.676Z,1.92
2023-04-25T23:07:13.459Z,1.83
2023-04-25T23:09:17.185Z,2.00
2023-04-25T23:11:21.849Z,2.25
2023-04-25T23:13:25.875Z,2.03
2023-04-25T23:15:31.128Z,1.90
2023-04-25T23:17:35.384Z,2.60
2023-04-25T23:19:40.359Z,1.90
2023-04-25T23:21:43.897Z,1.80
2023-04-25T23:23:47.505Z,1.75
2023-04-25T23:25:51.262Z,2.53
2023-04-25T23:27:55.598Z,2.30
2023-04-25T23:29:59.148Z,2.63
2023-04-25T23:32:02.868Z,2.20
2023-04-25T23:34:06.367Z,1.80
2023-04-25T23:36:19.977Z,2.25
2023-04-25T23:38:23.493Z,1.90
2023-04-25T23:40:34.783Z,2.08
2023-04-25T23:42:38.792Z,1.90
2023-04-25T23:44:42.878Z,2.20
2023-04-25T23:46:46.349Z,2.22
2023-04-25T23:48:49.827Z,2.08
2023-04-25T23:50:53.276Z,1.98
2023-04-25T23:52:58.269Z,1.88
2023-04-25T23:55:01.721Z,2.08
2023-04-25T23:57:05.546Z,1.83
2023-04-25T23:59:09.169Z,1.63
